Dousman, Wisconsin
Current Conditions -  °F | °C
As of 6:45 AM on Monday 22 Dec 2014 (Local Time) from KUES Reporting Station
Haze Haze  
Wind Chill: 21°   Ceiling: 4000
Heat Index: 30°   Visibility: 5mi
Dew Point: 27°   Wind: 12mph
Humidity: 86%   Direction: 140°SE
Pressure: 29.93"   Gusts: NA
Location:  43.01°N, 88.47°W
Report Text: KUES 221245Z 14010KT 5SM BR OVC040 M01/M03 A2993
Loading
Personal Weather Stations






























Interactive Weather Map New forecast layout! Learn more

10-Day Weather Forecast

Advertisements
Track Severe Weather on mobile